Time;durP1;ratioP1;P1;durP2;ratioP2;P2;SDS_P1;SDS_P2;PMS_P1;PMS_P2;Temp;Humidity;BMP_temperature;BMP_pressure;BME280_temperature;BME280_humidity;BME280_pressure;Samples;Min_cycle;Max_cycle;Signal;HPM_P1;HPM_P2
2022/04/27 00:00:38;;;;;;;20.63;8.38;;;3.90;99.90;;;;;;5022149;28;20067;-77
2022/04/27 00:03:05;;;;;;;17.90;7.32;;;3.80;99.90;;;;;;5038493;28;20049;-77
2022/04/27 00:05:32;;;;;;;16.02;7.32;;;3.80;99.90;;;;;;5055964;28;20603;-77
2022/04/27 00:07:58;;;;;;;;;;;3.70;99.90;;;;;;5056596;28;20107;-77
2022/04/27 00:10:24;;;;;;;20.35;8.93;;;3.60;99.90;;;;;;5039159;28;19921;-76
2022/04/27 00:12:51;;;;;;;26.13;10.60;;;3.70;99.90;;;;;;5038455;28;20124;-76
2022/04/27 00:15:20;;;;;;;27.73;10.02;;;3.50;99.90;;;;;;5038065;28;20098;-76
2022/04/27 00:17:48;;;;;;;29.35;11.63;;;;;;;;;;5056265;28;20076;-76
2022/04/27 00:20:14;;;;;;;30.75;12.38;;;;;;;;;;5037830;28;20052;-76
2022/04/27 00:22:40;;;;;;;28.70;11.30;;;3.50;99.90;;;;;;5056189;28;20151;-75
2022/04/27 00:25:06;;;;;;;28.10;11.68;;;3.60;99.90;;;;;;5056294;28;20049;-75
2022/04/27 00:27:32;;;;;;;26.33;11.43;;;3.60;99.90;;;;;;5021668;28;20083;-76
2022/04/27 00:29:59;;;;;;;27.00;11.30;;;3.50;99.90;;;;;;5037879;28;20082;-75
2022/04/27 00:32:25;;;;;;;33.05;12.02;;;3.40;99.90;;;;;;5055902;28;20218;-76
2022/04/27 00:34:51;;;;;;;31.88;11.13;;;3.10;99.90;;;;;;5004940;28;20107;-75
2022/04/27 00:37:18;;;;;;;26.70;10.20;;;3.40;99.90;;;;;;5056427;28;20053;-75
2022/04/27 00:39:45;;;;;;;27.05;11.40;;;3.40;99.90;;;;;;5055496;28;20045;-76
2022/04/27 00:42:15;;;;;;;27.60;10.38;;;3.40;99.90;;;;;;5037450;28;20057;-76
2022/04/27 00:44:44;;;;;;;26.48;10.98;;;3.40;99.90;;;;;;5056034;28;20346;-74
2022/04/27 00:47:14;;;;;;;27.00;10.60;;;3.50;99.90;;;;;;5053967;28;20056;-75
2022/04/27 00:49:51;;;;;;;26.33;10.88;;;3.50;99.90;;;;;;5021169;28;20052;-76
2022/04/27 00:52:18;;;;;;;28.42;11.75;;;3.50;99.90;;;;;;5056793;28;20087;-76
2022/04/27 00:54:49;;;;;;;26.00;10.40;;;3.50;99.90;;;;;;5038102;28;20044;-75
2022/04/27 00:57:15;;;;;;;21.02;10.07;;;3.40;99.90;;;;;;5038241;28;20138;-75
2022/04/27 00:59:44;;;;;;;28.60;10.32;;;3.40;99.90;;;;;;5037782;28;20056;-76
2022/04/27 01:02:10;;;;;;;27.95;11.02;;;3.40;99.90;;;;;;5022114;28;20041;-77
2022/04/27 01:04:37;;;;;;;22.73;10.48;;;3.50;99.90;;;;;;5037891;28;20477;-77
2022/04/27 01:07:04;;;;;;;24.75;10.82;;;3.40;99.90;;;;;;5021747;28;20393;-75
2022/04/27 01:09:30;;;;;;;;;;;3.40;99.90;;;;;;5022299;28;20045;-76
2022/04/27 01:11:57;;;;;;;28.15;10.55;;;3.40;99.90;;;;;;5022237;28;20011;-75
2022/04/27 01:14:24;;;;;;;21.65;10.07;;;3.40;99.90;;;;;;5037226;28;20048;-76
2022/04/27 01:16:54;;;;;;;25.00;10.38;;;3.40;99.90;;;;;;5021748;28;20056;-76
2022/04/27 01:19:24;;;;;;;26.00;9.13;;;3.40;99.90;;;;;;5054833;28;20489;-76
2022/04/27 01:21:50;;;;;;;27.75;10.48;;;3.50;99.90;;;;;;5037428;28;20454;-76
2022/04/27 01:24:21;;;;;;;27.55;11.35;;;3.40;99.90;;;;;;5037623;28;20048;-76
2022/04/27 01:26:49;;;;;;;26.50;10.00;;;3.40;99.90;;;;;;5055471;28;20037;-76
2022/04/27 01:29:25;;;;;;;21.65;9.85;;;3.30;99.90;;;;;;5038437;28;20052;-75
2022/04/27 01:31:51;;;;;;;23.85;9.00;;;3.20;99.90;;;;;;5037822;28;20052;-76
2022/04/27 01:34:17;;;;;;;20.35;9.23;;;3.10;99.90;;;;;;5037388;28;20508;-75
2022/04/27 01:36:43;;;;;;;19.85;8.32;;;3.00;99.90;;;;;;5037821;28;20049;-75
2022/04/27 01:39:09;;;;;;;21.75;9.35;;;2.90;99.90;;;;;;5020904;28;20041;-76
2022/04/27 01:41:36;;;;;;;23.25;8.75;;;2.80;99.90;;;;;;5021314;28;20044;-76
2022/04/27 01:44:03;;;;;;;22.33;9.20;;;2.80;99.90;;;;;;5054476;28;20065;-75
2022/04/27 01:46:29;;;;;;;21.52;8.80;;;2.80;99.90;;;;;;5036920;28;20085;-76
2022/04/27 01:48:56;;;;;;;18.83;8.70;;;2.80;99.90;;;;;;5055219;28;20088;-76
2022/04/27 01:54:15;;;;;;;22.58;9.13;;;2.70;99.90;;;;;;5055479;28;20114;-76
2022/04/27 01:56:45;;;;;;;27.33;11.52;;;2.70;99.90;;;;;;5038050;28;20347;-76
2022/04/27 01:59:12;;;;;;;30.52;9.88;;;2.80;99.90;;;;;;5036870;28;20041;-75
2022/04/27 02:01:38;;;;;;;25.10;9.48;;;2.70;99.90;;;;;;5037069;28;20048;-75
2022/04/27 02:04:04;;;;;;;28.07;12.93;;;2.80;99.90;;;;;;5020284;28;20114;-76
2022/04/27 02:06:31;;;;;;;22.73;10.18;;;2.80;99.90;;;;;;5054212;28;20284;-75
2022/04/27 02:08:57;;;;;;;28.30;10.48;;;2.80;99.90;;;;;;5054246;28;20162;-76
2022/04/27 02:11:26;;;;;;;32.67;10.93;;;2.80;99.90;;;;;;5003382;28;20474;-76
2022/04/27 02:13:55;;;;;;;34.83;12.30;;;2.90;99.90;;;;;;5035787;28;20080;-75
2022/04/27 02:16:25;;;;;;;29.55;10.55;;;2.80;99.90;;;;;;5036776;28;20048;-75
2022/04/27 02:18:51;;;;;;;28.67;10.23;;;2.80;99.90;;;;;;5036144;28;20045;-76
2022/04/27 02:21:17;;;;;;;23.70;9.10;;;2.80;99.90;;;;;;5035359;28;20052;-76
2022/04/27 02:23:46;;;;;;;32.72;9.50;;;2.80;99.90;;;;;;5036411;28;20048;-76
2022/04/27 02:26:13;;;;;;;26.63;9.25;;;2.80;99.90;;;;;;5036414;28;20041;-77
2022/04/27 02:28:39;;;;;;;27.10;10.20;;;2.80;99.90;;;;;;5035962;28;20054;-76
2022/04/27 02:31:04;;;;;;;24.70;9.20;;;2.90;99.90;;;;;;5019389;28;20065;-76
2022/04/27 02:33:31;;;;;;;25.77;9.20;;;2.90;99.90;;;;;;5053055;28;20056;-75
2022/04/27 02:35:58;;;;;;;24.73;10.07;;;3.00;99.90;;;;;;5019541;28;20099;-75
2022/04/27 02:38:24;;;;;;;24.40;10.00;;;3.10;99.90;;;;;;5035797;28;20107;-75
2022/04/27 02:40:49;;;;;;;22.63;9.30;;;3.20;99.90;;;;;;5003057;28;20056;-76
2022/04/27 02:43:16;;;;;;;26.00;10.07;;;3.30;99.90;;;;;;5053387;28;20485;-76
2022/04/27 02:45:43;;;;;;;26.35;9.85;;;3.40;99.90;;;;;;5053528;28;20458;-76
2022/04/27 02:48:09;;;;;;;25.42;9.95;;;3.50;99.90;;;;;;5035635;28;20055;-76
2022/04/27 02:53:21;;;;;;;24.80;10.63;;;3.70;99.90;;;;;;5035488;28;20048;-76
2022/04/27 02:55:47;;;;;;;27.98;9.20;;;3.70;99.90;;;;;;5018901;28;20110;-76
2022/04/27 02:58:12;;;;;;;21.83;9.60;;;3.80;99.90;;;;;;5052686;28;20047;-76
2022/04/27 03:00:39;;;;;;;25.63;10.00;;;3.80;99.90;;;;;;5018837;28;20045;-76
2022/04/27 03:03:07;;;;;;;27.27;10.45;;;3.90;99.90;;;;;;5018983;28;20064;-77
2022/04/27 03:05:33;;;;;;;24.15;9.98;;;3.90;99.90;;;;;;5002250;28;20045;-77
2022/04/27 03:07:59;;;;;;;24.05;9.55;;;4.00;99.90;;;;;;5035736;28;20049;-75
2022/04/27 03:10:24;;;;;;;24.40;9.80;;;4.00;99.90;;;;;;5018921;28;20103;-75
2022/04/27 03:12:50;;;;;;;32.63;10.80;;;4.00;99.90;;;;;;5019332;28;20136;-76
2022/04/27 03:15:17;;;;;;;26.00;10.20;;;4.00;99.90;;;;;;5018394;28;20061;-75
2022/04/27 03:17:43;;;;;;;25.15;10.10;;;4.10;99.90;;;;;;5052687;28;20049;-77
2022/04/27 03:20:09;;;;;;;22.73;9.63;;;4.20;99.90;;;;;;5053297;28;20041;-75
2022/04/27 03:22:35;;;;;;;26.85;10.50;;;4.20;99.90;;;;;;5018662;28;20119;-75
2022/04/27 03:25:00;;;;;;;28.83;10.48;;;4.20;99.90;;;;;;5034947;28;20092;-76
2022/04/27 03:27:27;;;;;;;29.13;11.07;;;4.20;99.90;;;;;;5018758;28;20346;-76
2022/04/27 03:29:53;;;;;;;23.52;9.85;;;4.10;99.90;;;;;;5035259;28;20138;-78
2022/04/27 03:32:19;;;;;;;24.17;10.07;;;4.20;99.90;;;;;;5034553;28;20052;-75
2022/04/27 03:34:46;;;;;;;22.52;10.02;;;4.20;99.90;;;;;;5017925;28;20100;-77
2022/04/27 03:37:12;;;;;;;22.23;10.25;;;4.10;99.90;;;;;;5052417;28;20049;-76
2022/04/27 03:39:38;;;;;;;22.52;10.82;;;4.10;99.90;;;;;;5034915;28;20223;-76
2022/04/27 03:42:04;;;;;;;23.15;9.07;;;4.20;99.90;;;;;;5018767;28;20040;-76
2022/04/27 03:44:30;;;;;;;21.75;9.32;;;4.20;99.90;;;;;;5034702;28;20118;-74
2022/04/27 03:46:56;;;;;;;24.48;9.20;;;4.20;99.90;;;;;;5052254;28;20061;-76
2022/04/27 03:49:21;;;;;;;22.85;9.82;;;4.20;99.90;;;;;;5034780;28;20037;-76
2022/04/27 03:51:47;;;;;;;25.95;10.32;;;4.30;99.90;;;;;;5052502;28;20059;-77
2022/04/27 03:54:13;;;;;;;25.58;10.32;;;4.30;99.90;;;;;;5034669;28;20041;-76
2022/04/27 03:56:39;;;;;;;25.77;10.70;;;4.30;99.90;;;;;;5053154;28;20492;-76
2022/04/27 03:59:04;;;;;;;25.40;10.82;;;4.40;99.90;;;;;;5034518;28;20049;-75
2022/04/27 04:01:30;;;;;;;24.15;10.57;;;4.40;99.90;;;;;;5017811;28;20052;-76
2022/04/27 04:03:58;;;;;;;24.35;10.30;;;4.40;99.90;;;;;;5052488;28;20041;-76
2022/04/27 04:06:24;;;;;;;26.13;11.10;;;4.40;99.90;;;;;;5034917;28;20060;-75
2022/04/27 04:08:50;;;;;;;24.40;10.07;;;4.40;99.90;;;;;;5034650;28;20369;-76
2022/04/27 04:11:15;;;;;;;24.77;9.98;;;4.30;99.90;;;;;;5052138;28;20052;-76
2022/04/27 04:13:41;;;;;;;24.08;9.73;;;4.30;99.90;;;;;;5034432;28;20056;-75
2022/04/27 04:16:07;;;;;;;22.75;9.70;;;4.20;99.90;;;;;;5034757;28;20096;-75
2022/04/27 04:18:33;;;;;;;26.02;11.23;;;4.30;99.90;;;;;;5034336;28;20049;-76
2022/04/27 04:20:58;;;;;;;25.13;10.05;;;4.40;99.90;;;;;;5034024;28;20092;-77
2022/04/27 04:23:24;;;;;;;27.55;10.55;;;4.40;99.90;;;;;;5002315;28;20465;-77
2022/04/27 04:28:35;;;;;;;23.35;10.32;;;4.30;99.90;;;;;;5052266;28;20056;-76
2022/04/27 04:31:03;;;;;;;26.95;10.95;;;4.30;99.90;;;;;;5034800;28;20041;-75
2022/04/27 04:33:29;;;;;;;21.77;9.00;;;4.30;99.90;;;;;;5034116;28;20485;-77
2022/04/27 04:35:59;;;;;;;32.13;10.90;;;4.30;99.90;;;;;;5017696;28;20493;-77
2022/04/27 04:38:25;;;;;;;26.08;9.65;;;4.30;99.90;;;;;;5018216;28;20485;-76
2022/04/27 04:40:52;;;;;;;26.08;10.15;;;4.20;99.90;;;;;;5034283;28;20378;-75
2022/04/27 04:43:18;;;;;;;22.38;9.40;;;4.20;99.90;;;;;;5052206;28;20081;-76
2022/04/27 04:45:44;;;;;;;24.92;10.30;;;4.30;99.90;;;;;;5055349;28;20150;-76
2022/04/27 04:48:10;;;;;;;23.52;9.50;;;4.30;99.90;;;;;;5037811;28;20053;-76
2022/04/27 04:50:36;;;;;;;27.48;10.10;;;4.30;99.90;;;;;;5021729;28;20048;-76
2022/04/27 04:53:04;;;;;;;24.58;9.38;;;4.40;99.90;;;;;;5037956;28;20052;-76
2022/04/27 04:55:30;;;;;;;22.90;9.13;;;4.50;99.90;;;;;;5038345;28;20049;-76
2022/04/27 04:57:56;;;;;;;27.52;10.27;;;4.60;99.90;;;;;;5037975;28;20135;-76
2022/04/27 05:00:21;;;;;;;25.15;9.30;;;4.70;99.90;;;;;;5037733;28;20501;-76
2022/04/27 05:02:47;;;;;;;24.33;9.85;;;4.70;99.90;;;;;;5037888;28;20093;-76
2022/04/27 05:05:13;;;;;;;24.38;9.63;;;4.80;99.90;;;;;;5021777;28;20060;-78
2022/04/27 05:07:39;;;;;;;24.38;9.13;;;4.90;99.90;;;;;;5055093;28;20475;-76
2022/04/27 05:10:05;;;;;;;24.58;9.10;;;5.00;99.90;;;;;;5021890;28;20048;-76
2022/04/27 05:12:34;;;;;;;19.60;9.00;;;5.00;99.90;;;;;;5038610;28;20171;-75
2022/04/27 05:15:00;;;;;;;24.30;8.50;;;5.10;99.90;;;;;;5021434;28;20044;-76
2022/04/27 05:17:26;;;;;;;21.70;9.27;;;5.30;99.90;;;;;;5038686;28;20072;-75
2022/04/27 05:19:52;;;;;;;24.30;9.30;;;5.30;99.90;;;;;;5022266;28;20135;-76
2022/04/27 05:22:19;;;;;;;25.07;10.87;;;5.30;99.90;;;;;;4989464;28;20060;-76
2022/04/27 05:24:45;;;;;;;22.35;9.48;;;5.40;99.90;;;;;;5038072;28;20056;-76
2022/04/27 05:27:11;;;;;;;22.30;8.95;;;5.50;99.90;;;;;;5021459;28;20045;-76
2022/04/27 05:32:21;;;;;;;23.63;9.75;;;5.70;99.90;;;;;;5036955;28;20053;-76
2022/04/27 05:34:47;;;;;;;29.88;9.57;;;5.80;99.90;;;;;;5054800;28;20073;-76
2022/04/27 05:37:13;;;;;;;25.67;9.70;;;5.80;99.90;;;;;;5022911;28;20089;-76
2022/04/27 05:39:39;;;;;;;34.20;12.50;;;5.80;99.90;;;;;;5021299;28;20049;-76
2022/04/27 05:42:05;;;;;;;28.15;10.18;;;5.80;99.90;;;;;;5020965;28;20048;-77
2022/04/27 05:44:31;;;;;;;25.23;9.43;;;5.80;99.90;;;;;;5037560;28;20061;-78
2022/04/27 05:46:58;;;;;;;20.30;8.68;;;5.90;99.90;;;;;;5021199;28;20071;-77
2022/04/27 05:49:24;;;;;;;30.48;9.50;;;5.80;99.90;;;;;;5037498;28;20132;-76
2022/04/27 05:51:50;;;;;;;22.40;8.77;;;6.00;99.90;;;;;;5005870;28;20080;-76
2022/04/27 05:54:16;;;;;;;22.77;9.38;;;6.10;99.90;;;;;;5037632;28;20225;-77
2022/04/27 05:56:44;;;;;;;21.15;9.25;;;6.10;99.90;;;;;;5053790;28;20055;-76
2022/04/27 05:59:10;;;;;;;25.88;9.57;;;6.20;99.90;;;;;;5036921;28;20041;-76
2022/04/27 06:01:37;;;;;;;22.33;9.35;;;6.40;99.90;;;;;;5037392;28;20049;-76
2022/04/27 06:04:03;;;;;;;24.38;8.70;;;6.40;99.90;;;;;;5004301;28;20065;-77
2022/04/27 06:06:29;;;;;;;25.17;10.07;;;6.50;99.90;;;;;;5037415;28;20124;-77
2022/04/27 06:08:55;;;;;;;21.45;9.23;;;6.60;99.90;;;;;;5021003;28;20049;-77
2022/04/27 06:11:21;;;;;;;21.23;8.23;;;6.70;99.90;;;;;;5054813;28;20048;-76
2022/04/27 06:13:47;;;;;;;22.00;9.10;;;6.70;99.90;;;;;;5055502;28;20041;-75
2022/04/27 06:16:14;;;;;;;26.70;9.07;;;6.80;99.90;;;;;;5020846;28;20041;-75
2022/04/27 06:18:40;;;;;;;29.27;9.18;;;6.90;99.90;;;;;;5020315;28;20049;-75
2022/04/27 06:21:07;;;;;;;30.25;10.20;;;6.90;99.90;;;;;;5036475;28;20093;-75
2022/04/27 06:23:33;;;;;;;18.52;8.88;;;7.10;99.90;;;;;;5054639;28;20044;-76
2022/04/27 06:25:59;;;;;;;21.00;8.15;;;7.20;99.90;;;;;;5036571;28;20429;-76
2022/04/27 06:28:25;;;;;;;21.77;8.90;;;7.30;99.90;;;;;;5053994;28;20053;-75
2022/04/27 06:30:51;;;;;;;22.23;8.68;;;7.40;99.90;;;;;;5004382;28;20040;-76
2022/04/27 06:33:18;;;;;;;20.80;9.60;;;7.50;99.90;;;;;;5019963;28;20057;-76
2022/04/27 06:35:44;;;;;;;;;;;7.70;99.90;;;;;;5037422;28;20401;-76
2022/04/27 06:38:10;;;;;;;20.75;8.35;;;7.80;99.90;;;;;;5036678;28;19975;-76
2022/04/27 06:40:36;;;;;;;25.48;9.07;;;7.90;99.90;;;;;;5053659;28;20044;-76
2022/04/27 06:43:01;;;;;;;28.08;8.73;;;7.90;99.90;;;;;;5003301;28;20497;-76
2022/04/27 06:45:31;;;;;;;18.42;8.05;;;8.00;99.90;;;;;;5015208;28;20054;-77
2022/04/27 06:48:00;;;;;;;20.08;7.80;;;8.20;99.90;;;;;;5016454;28;20482;-77
2022/04/27 06:50:25;;;;;;;17.40;8.82;;;8.40;99.90;;;;;;5032010;28;20468;-77
2022/04/27 06:52:53;;;;;;;21.63;8.73;;;8.50;99.90;;;;;;5015896;28;20045;-78
2022/04/27 06:55:19;;;;;;;17.40;8.25;;;8.70;99.90;;;;;;5031942;28;20500;-77
2022/04/27 06:57:44;;;;;;;14.98;7.55;;;8.80;99.90;;;;;;4999831;28;20085;-77
2022/04/27 07:00:12;;;;;;;19.48;6.97;;;8.90;99.90;;;;;;5016005;28;20051;-77
2022/04/27 07:02:39;;;;;;;13.70;6.15;;;9.10;99.90;;;;;;5016829;28;20057;-77
2022/04/27 07:05:06;;;;;;;;;;;9.20;99.90;;;;;;5032585;28;20053;-78
2022/04/27 07:07:33;;;;;;;18.77;7.32;;;9.30;99.90;;;;;;5015508;28;20046;-77
2022/04/27 07:09:59;;;;;;;17.55;6.40;;;9.30;99.90;;;;;;5015272;28;20140;-77
2022/04/27 07:12:25;;;;;;;15.48;6.88;;;9.50;99.90;;;;;;5031681;28;20192;-77
2022/04/27 07:14:51;;;;;;;17.15;6.78;;;9.60;99.90;;;;;;5033247;28;20132;-77
2022/04/27 07:17:18;;;;;;;16.08;6.00;;;9.80;99.90;;;;;;4999477;28;20099;-78
2022/04/27 07:19:44;;;;;;;11.30;5.10;;;9.90;99.90;;;;;;4999329;28;20114;-78
2022/04/27 07:22:11;;;;;;;11.90;4.88;;;10.00;99.90;;;;;;5033419;28;20041;-77
2022/04/27 07:24:37;;;;;;;12.02;5.45;;;10.20;99.90;;;;;;5031848;28;20096;-76
2022/04/27 07:27:04;;;;;;;9.02;4.40;;;10.40;99.90;;;;;;5032263;28;20088;-78
2022/04/27 07:29:30;;;;;;;14.13;4.93;;;10.60;99.90;;;;;;5015401;28;20502;-77
2022/04/27 07:31:56;;;;;;;10.55;3.45;;;10.20;99.90;;;;;;5031765;28;20139;-78
2022/04/27 07:34:21;;;;;;;9.52;3.63;;;10.10;99.90;;;;;;5032571;28;20045;-78
2022/04/27 07:36:47;;;;;;;12.10;4.57;;;10.40;99.90;;;;;;5015086;28;20049;-79
2022/04/27 07:39:13;;;;;;;11.85;4.05;;;10.40;99.90;;;;;;5032986;28;20045;-79
2022/04/27 07:41:39;;;;;;;8.88;3.05;;;10.40;99.90;;;;;;5033300;28;20048;-79
2022/04/27 07:44:08;;;;;;;8.75;2.90;;;10.40;99.90;;;;;;5034172;28;20052;-78
2022/04/27 07:46:34;;;;;;;14.95;6.18;;;10.40;99.90;;;;;;5053350;28;20060;-78
2022/04/27 07:48:59;;;;;;;15.57;6.72;;;10.50;99.90;;;;;;5035766;28;20072;-79
2022/04/27 07:51:25;;;;;;;16.63;7.22;;;10.70;99.90;;;;;;5034969;28;20044;-79
2022/04/27 07:53:51;;;;;;;14.30;5.88;;;10.80;99.90;;;;;;5036064;28;20096;-78
2022/04/27 07:56:17;;;;;;;13.45;6.20;;;11.00;99.90;;;;;;5036027;28;20041;-78
2022/04/27 07:58:43;;;;;;;14.38;6.50;;;11.10;99.90;;;;;;5053530;28;20088;-78
2022/04/27 08:01:09;;;;;;;20.00;6.63;;;10.90;99.90;;;;;;5002797;28;20049;-80
2022/04/27 08:03:35;;;;;;;19.67;6.40;;;10.90;99.90;;;;;;5053542;28;20052;-79
2022/04/27 08:06:03;;;;;;;10.60;5.18;;;11.00;99.90;;;;;;5053298;28;20053;-79
2022/04/27 08:08:29;;;;;;;19.55;5.55;;;11.00;99.90;;;;;;5018705;28;20045;-79
2022/04/27 08:10:55;;;;;;;10.27;4.32;;;11.00;99.90;;;;;;5018758;28;20190;-78
2022/04/27 08:13:24;;;;;;;10.07;4.93;;;11.10;99.90;;;;;;5019554;28;20079;-78
2022/04/27 08:15:50;;;;;;;7.43;3.45;;;10.90;99.90;;;;;;5002574;28;20452;-78
2022/04/27 08:18:16;;;;;;;5.47;1.65;;;11.10;99.90;;;;;;5018539;28;20477;-76
2022/04/27 08:23:34;;;;;;;6.22;1.60;;;10.60;96.80;;;;;;5067684;28;20053;-75
2022/04/27 08:26:04;;;;;;;4.95;1.25;;;10.70;98.30;;;;;;5042294;28;20052;-79
2022/04/27 08:28:34;;;;;;;5.43;1.45;;;10.70;98.60;;;;;;5039414;28;20048;-78
2022/04/27 08:31:01;;;;;;;5.97;1.45;;;10.70;94.70;;;;;;5039628;28;20087;-78
2022/04/27 08:33:27;;;;;;;3.43;1.47;;;10.70;95.50;;;;;;5022786;28;20061;-78
2022/04/27 08:35:55;;;;;;;6.93;1.83;;;10.70;93.60;;;;;;5038054;28;20485;-78
2022/04/27 08:38:21;;;;;;;5.05;1.25;;;10.50;93.50;;;;;;5023399;28;20388;-77
2022/04/27 08:40:47;;;;;;;5.90;1.45;;;10.80;96.20;;;;;;5005934;28;20044;-78
2022/04/27 08:43:14;;;;;;;6.25;1.00;;;10.80;93.00;;;;;;5040200;28;20045;-81
2022/04/27 08:45:41;;;;;;;4.90;1.05;;;10.80;91.40;;;;;;5022001;28;20056;-77
2022/04/27 08:48:09;;;;;;;8.32;1.20;;;11.30;93.00;;;;;;5039360;28;20057;-78
2022/04/27 08:50:34;;;;;;;;;;;11.40;91.60;;;;;;5057646;28;20473;-77
2022/04/27 08:53:00;;;;;;;6.67;1.27;;;11.80;92.80;;;;;;5055998;28;19925;-78
2022/04/27 08:55:29;;;;;;;5.35;1.25;;;12.10;95.60;;;;;;5056046;28;20106;-76
2022/04/27 08:58:16;;;;;;;8.00;1.52;;;12.40;95.00;;;;;;5056268;28;20041;-76
2022/04/27 09:00:43;;;;;;;6.15;1.48;;;12.20;90.60;;;;;;5022806;28;20421;-78
2022/04/27 09:03:32;;;;;;;7.03;1.30;;;12.10;85.40;;;;;;5038489;28;20052;-74
2022/04/27 09:05:59;;;;;;;8.88;1.77;;;11.50;84.80;;;;;;5039049;28;20334;-77
2022/04/27 09:08:46;;;;;;;3.75;1.55;;;11.70;84.20;;;;;;5038714;28;20118;-76
2022/04/27 09:11:26;;;;;;;8.07;1.60;;;11.60;84.10;;;;;;5021845;28;20057;-77
2022/04/27 09:13:59;;;;;;;4.00;1.27;;;11.70;86.20;;;;;;5038508;28;20083;-77
2022/04/27 09:22:06;;;;;;;7.30;1.20;;;12.10;81.70;;;;;;5069944;28;20222;-78
2022/04/27 09:24:51;;;;;;;6.18;1.40;;;12.50;85.50;;;;;;5068646;28;20048;-76
2022/04/27 09:27:19;;;;;;;7.20;1.27;;;12.40;79.60;;;;;;5064767;28;20041;-75
2022/04/27 09:30:07;;;;;;;6.07;1.75;;;12.00;81.60;;;;;;5031360;28;20132;-76
2022/04/27 09:32:36;;;;;;;17.45;2.03;;;12.00;80.70;;;;;;5026747;28;20465;-77
2022/04/27 09:35:03;;;;;;;5.15;1.42;;;12.40;80.50;;;;;;5022120;28;20480;-79
2022/04/27 09:37:38;;;;;;;9.20;1.95;;;11.90;80.50;;;;;;5038865;28;20385;-75
2022/04/27 09:40:11;;;;;;;6.93;1.52;;;11.90;79.30;;;;;;5022105;28;20065;-73
2022/04/27 09:42:41;;;;;;;6.00;1.92;;;11.80;79.70;;;;;;5039177;28;20037;-77
2022/04/27 09:45:18;;;;;;;9.95;2.05;;;11.50;78.20;;;;;;5041723;28;20052;-77
2022/04/27 09:47:48;;;;;;;10.45;2.00;;;11.60;78.70;;;;;;5034234;28;20051;-77
2022/04/27 09:50:17;;;;;;;6.68;2.25;;;11.90;80.20;;;;;;5069458;28;20040;-79
2022/04/27 09:52:44;;;;;;;5.50;1.52;;;12.10;80.60;;;;;;5064521;28;20053;-74
2022/04/27 09:55:13;;;;;;;9.00;1.80;;;12.60;82.70;;;;;;5060958;28;20041;-77
2022/04/27 09:57:41;;;;;;;8.90;1.77;;;12.60;80.90;;;;;;5040610;28;20133;-75
2022/04/27 10:00:09;;;;;;;8.75;1.95;;;12.80;75.40;;;;;;5057783;28;20041;-76
2022/04/27 10:02:40;;;;;;;5.85;1.45;;;12.70;76.90;;;;;;5061817;28;20369;-74
2022/04/27 10:05:07;;;;;;;6.35;1.50;;;12.70;76.70;;;;;;5064565;28;20041;-74
2022/04/27 10:07:34;;;;;;;;;;;12.50;75.10;;;;;;5062852;28;20374;-77
2022/04/27 10:10:01;;;;;;;3.70;1.27;;;13.00;79.40;;;;;;5039835;28;19920;-77
2022/04/27 10:12:27;;;;;;;9.32;1.58;;;13.00;77.00;;;;;;5058055;28;20052;-76
2022/04/27 10:14:53;;;;;;;9.55;1.70;;;12.70;75.80;;;;;;5021300;28;20091;-77
2022/04/27 10:17:19;;;;;;;6.00;1.80;;;12.60;76.30;;;;;;5038049;28;20052;-79
2022/04/27 10:19:50;;;;;;;10.30;2.28;;;12.60;75.70;;;;;;5037712;28;20451;-74
2022/04/27 10:22:33;;;;;;;6.13;1.50;;;12.40;75.20;;;;;;5037425;28;20068;-74
2022/04/27 10:25:06;;;;;;;7.75;1.83;;;12.60;75.90;;;;;;5021091;28;20048;-76
2022/04/27 10:27:40;;;;;;;5.88;2.15;;;12.10;76.00;;;;;;5021588;28;20095;-74
2022/04/27 10:30:11;;;;;;;5.13;1.50;;;12.10;77.10;;;;;;5054521;28;20091;-76
2022/04/27 10:32:41;;;;;;;6.80;1.63;;;12.00;75.60;;;;;;5037817;28;20055;-76
2022/04/27 10:35:17;;;;;;;5.07;1.42;;;12.40;78.40;;;;;;5054094;28;20053;-75
2022/04/27 10:37:47;;;;;;;6.88;1.90;;;12.70;77.10;;;;;;5055262;28;20103;-75
2022/04/27 10:40:25;;;;;;;5.55;1.73;;;12.60;76.70;;;;;;5036608;28;20098;-77
2022/04/27 10:42:51;;;;;;;4.53;1.52;;;12.60;74.50;;;;;;5036864;28;20139;-77
2022/04/27 10:45:23;;;;;;;4.43;1.45;;;12.60;74.60;;;;;;5020255;28;20060;-78
2022/04/27 10:47:50;;;;;;;4.35;1.50;;;12.70;75.80;;;;;;5020544;28;20072;-74
2022/04/27 10:50:19;;;;;;;9.77;2.13;;;13.10;75.60;;;;;;5036226;28;20438;-77
2022/04/27 10:52:51;;;;;;;5.20;1.48;;;13.30;73.30;;;;;;5053709;28;20049;-76
2022/04/27 10:55:45;;;;;;;6.00;1.40;;;13.00;70.30;;;;;;5036014;28;20037;-74
2022/04/27 10:58:34;;;;;;;7.13;1.60;;;12.80;72.70;;;;;;5027767;28;20151;-76
2022/04/27 11:01:03;;;;;;;9.27;1.75;;;13.00;74.50;;;;;;5055947;28;20124;-77
2022/04/27 11:03:36;;;;;;;5.70;1.77;;;13.30;72.80;;;;;;5036138;28;20052;-79
2022/04/27 11:06:07;;;;;;;6.60;1.55;;;13.50;70.40;;;;;;5020307;28;20109;-78
2022/04/27 11:08:54;;;;;;;7.43;1.35;;;13.90;75.70;;;;;;5004669;28;20057;-78
2022/04/27 11:11:26;;;;;;;4.63;1.35;;;13.70;73.20;;;;;;5054805;28;20045;-78
2022/04/27 11:14:00;;;;;;;4.43;1.58;;;14.00;73.80;;;;;;5054687;28;20053;-77
2022/04/27 11:16:26;;;;;;;5.72;1.67;;;14.10;71.80;;;;;;5036168;28;20095;-82
2022/04/27 11:18:59;;;;;;;4.88;1.80;;;14.10;71.50;;;;;;5035505;28;20053;-76
2022/04/27 11:21:30;;;;;;;5.70;2.00;;;14.20;71.30;;;;;;5035465;28;20178;-79
2022/04/27 11:24:05;;;;;;;6.20;1.42;;;14.60;73.40;;;;;;5036345;28;20471;-77
2022/04/27 11:26:31;;;;;;;6.82;1.70;;;14.80;72.00;;;;;;5019978;28;20091;-77
2022/04/27 11:28:57;;;;;;;7.50;1.60;;;14.70;70.80;;;;;;5035663;28;20052;-76
2022/04/27 11:31:23;;;;;;;4.70;1.65;;;13.80;68.90;;;;;;5018957;28;20432;-78
2022/04/27 11:33:49;;;;;;;7.88;1.80;;;13.70;70.00;;;;;;5053091;28;20033;-78
2022/04/27 11:36:34;;;;;;;4.43;1.20;;;14.40;71.60;;;;;;5035424;28;20103;-77
2022/04/27 11:38:59;;;;;;;5.13;1.23;;;14.40;70.50;;;;;;5020015;28;20041;-77
2022/04/27 11:41:25;;;;;;;7.40;1.92;;;13.70;67.30;;;;;;5018835;28;20417;-78
2022/04/27 11:43:55;;;;;;;9.38;2.10;;;14.20;70.20;;;;;;5035108;28;20485;-79
2022/04/27 11:46:36;;;;;;;6.97;1.80;;;13.90;69.60;;;;;;5030811;28;20068;-78
2022/04/27 11:49:02;;;;;;;5.60;1.80;;;14.00;70.30;;;;;;5032054;28;20047;-78
2022/04/27 11:51:31;;;;;;;7.85;1.70;;;14.40;70.90;;;;;;5032555;28;20042;-78
2022/04/27 11:53:57;;;;;;;6.10;1.80;;;14.80;71.10;;;;;;5014857;28;20048;-77
2022/04/27 11:56:34;;;;;;;7.85;1.80;;;14.40;67.10;;;;;;5015393;28;20045;-76
2022/04/27 11:59:07;;;;;;;6.93;1.70;;;14.30;68.00;;;;;;5015487;28;20115;-77
2022/04/27 12:01:33;;;;;;;3.55;1.50;;;14.70;67.70;;;;;;4999830;28;20076;-78
2022/04/27 12:04:04;;;;;;;5.63;1.65;;;14.10;67.10;;;;;;5031806;28;20118;-78
2022/04/27 12:06:30;;;;;;;6.82;1.60;;;14.50;68.50;;;;;;5031330;28;20041;-82
2022/04/27 12:09:02;;;;;;;5.78;2.00;;;14.00;64.70;;;;;;4998903;28;20061;-78
2022/04/27 12:11:27;;;;;;;6.40;1.67;;;13.70;65.90;;;;;;5015089;28;20055;-79
2022/04/27 12:13:55;;;;;;;6.60;2.10;;;14.10;68.80;;;;;;4998733;28;20049;-76
2022/04/27 12:16:21;;;;;;;5.20;1.90;;;13.50;66.60;;;;;;5032735;28;20053;-75
2022/04/27 12:18:54;;;;;;;8.52;2.10;;;14.00;66.20;;;;;;5031373;28;20057;-76
2022/04/27 12:21:26;;;;;;;5.80;2.00;;;14.20;68.30;;;;;;5032381;28;20049;-77
2022/04/27 12:23:58;;;;;;;7.20;1.90;;;14.00;66.10;;;;;;5014694;28;20083;-79
2022/04/27 12:26:26;;;;;;;8.93;1.95;;;13.90;68.50;;;;;;5000022;28;20401;-77
2022/04/27 12:28:58;;;;;;;6.22;1.90;;;13.80;67.60;;;;;;5033086;28;20133;-76
2022/04/27 12:31:31;;;;;;;8.88;2.00;;;14.20;68.30;;;;;;5032576;28;20373;-78
2022/04/27 12:33:59;;;;;;;5.57;1.92;;;14.20;67.80;;;;;;5031981;28;20367;-79
2022/04/27 12:39:23;;;;;;;6.60;1.60;;;14.10;67.70;;;;;;5030829;28;20065;-78
2022/04/27 12:42:09;;;;;;;9.88;2.40;;;14.40;68.40;;;;;;4998991;28;20046;-77
2022/04/27 12:44:42;;;;;;;6.07;1.60;;;14.60;68.90;;;;;;5031022;28;20073;-82
2022/04/27 12:47:10;;;;;;;8.30;2.10;;;14.80;70.60;;;;;;5031487;28;20118;-77
2022/04/27 12:49:41;;;;;;;9.15;2.35;;;14.90;69.40;;;;;;5015143;28;20196;-78
2022/04/27 12:52:16;;;;;;;6.40;1.98;;;14.80;70.10;;;;;;5031969;28;20053;-77
2022/04/27 12:54:43;;;;;;;5.95;2.38;;;14.90;69.60;;;;;;5031132;28;20041;-77
2022/04/27 12:57:09;;;;;;;7.30;2.45;;;14.10;67.00;;;;;;5031550;28;20158;-77
2022/04/27 12:59:59;;;;;;;7.60;2.10;;;13.70;70.00;;;;;;5032295;28;20091;-80
2022/04/27 13:02:26;;;;;;;8.27;2.38;;;13.70;69.40;;;;;;5031456;28;20080;-79
2022/04/27 13:04:52;;;;;;;7.43;2.63;;;13.70;70.40;;;;;;5033262;28;20050;-79
2022/04/27 13:07:19;;;;;;;6.55;2.45;;;13.50;71.80;;;;;;5018662;28;20049;-82
2022/04/27 13:12:30;;;;;;;14.10;2.70;;;13.40;73.60;;;;;;5035392;28;19986;-77
2022/04/27 13:14:56;;;;;;;;;;;13.40;73.10;;;;;;5035569;28;20061;-79